createdAt,value
2017-08-27T00:00:10.413Z,0
2017-08-27T00:01:10.376Z,0
2017-08-27T00:02:10.047Z,0
2017-08-27T00:03:10.383Z,0
2017-08-27T00:04:10.316Z,0
2017-08-27T00:05:10.309Z,0
2017-08-27T00:06:10.278Z,0
2017-08-27T00:07:10.251Z,0
2017-08-27T00:08:10.241Z,0
2017-08-27T00:09:10.225Z,0
2017-08-27T00:10:10.196Z,0
2017-08-27T00:11:10.226Z,0
2017-08-27T00:12:10.204Z,0
2017-08-27T00:13:10.129Z,0
2017-08-27T00:14:10.120Z,0
2017-08-27T00:15:10.102Z,0
2017-08-27T00:16:10.076Z,0
2017-08-27T00:17:10.056Z,0
2017-08-27T00:18:10.067Z,0
2017-08-27T00:19:10.012Z,0
2017-08-27T00:20:10.240Z,0
2017-08-27T00:21:09.991Z,0
2017-08-27T00:22:09.952Z,0
2017-08-27T00:23:09.939Z,0
2017-08-27T00:24:09.606Z,0
2017-08-27T00:25:09.904Z,0
2017-08-27T00:26:09.867Z,0
2017-08-27T00:27:09.856Z,0
2017-08-27T00:28:09.877Z,0
2017-08-27T00:29:09.822Z,0
2017-08-27T00:30:09.785Z,0
2017-08-27T00:31:09.210Z,0
2017-08-27T00:32:09.752Z,0
2017-08-27T00:33:09.151Z,0
2017-08-27T00:34:09.745Z,0
2017-08-27T00:35:09.687Z,0
2017-08-27T00:36:09.385Z,0
2017-08-27T00:37:09.638Z,0
2017-08-27T00:38:09.330Z,0
2017-08-27T00:39:09.610Z,0
2017-08-27T00:40:09.598Z,0
2017-08-27T00:41:09.571Z,0
2017-08-27T00:42:09.553Z,0
2017-08-27T00:43:09.520Z,0
2017-08-27T00:44:09.551Z,0
2017-08-27T00:45:09.488Z,0
2017-08-27T00:46:08.875Z,0
2017-08-27T00:47:09.448Z,0
2017-08-27T00:48:09.481Z,0
2017-08-27T00:49:09.407Z,0
2017-08-27T00:50:09.380Z,0
2017-08-27T00:51:09.376Z,0
2017-08-27T00:52:09.340Z,0
2017-08-27T00:53:09.340Z,0
2017-08-27T00:54:09.305Z,0
2017-08-27T00:55:09.294Z,0
2017-08-27T00:56:09.261Z,0
2017-08-27T00:57:09.346Z,0
2017-08-27T00:58:08.602Z,0
2017-08-27T00:59:09.255Z,0
2017-08-27T01:00:08.880Z,0
2017-08-27T01:01:08.925Z,0
2017-08-27T01:02:09.195Z,0
2017-08-27T01:03:09.124Z,0
2017-08-27T01:04:09.111Z,0
2017-08-27T01:05:09.092Z,0
2017-08-27T01:06:09.062Z,0
2017-08-27T01:07:09.041Z,0
2017-08-27T01:08:09.026Z,0
2017-08-27T01:09:09.045Z,0
2017-08-27T01:10:08.982Z,0
2017-08-27T01:11:08.963Z,0
2017-08-27T01:12:08.956Z,0
2017-08-27T01:13:08.934Z,0
2017-08-27T01:14:08.899Z,0
2017-08-27T01:15:08.892Z,0
2017-08-27T01:16:08.892Z,0
2017-08-27T01:17:08.546Z,0
2017-08-27T01:18:08.833Z,0
2017-08-27T01:19:08.816Z,0
2017-08-27T01:20:08.779Z,0
2017-08-27T01:21:08.761Z,0
2017-08-27T01:22:08.735Z,0
2017-08-27T01:23:08.736Z,0
2017-08-27T01:24:08.696Z,0
2017-08-27T01:25:08.790Z,0
2017-08-27T01:26:08.349Z,0
2017-08-27T01:27:08.033Z,0
2017-08-27T01:28:08.314Z,0
2017-08-27T01:29:08.599Z,0
2017-08-27T01:30:08.574Z,0
2017-08-27T01:31:08.555Z,0
2017-08-27T01:32:08.539Z,0
2017-08-27T01:33:08.564Z,0
2017-08-27T01:34:08.512Z,0
2017-08-27T01:35:08.484Z,0
2017-08-27T01:36:08.461Z,0
2017-08-27T01:37:07.839Z,0
2017-08-27T01:38:08.418Z,0
2017-08-27T01:39:08.693Z,0
2017-08-27T01:40:08.432Z,0
2017-08-27T01:41:08.353Z,0
2017-08-27T01:42:08.331Z,0
2017-08-27T01:43:08.317Z,0
2017-08-27T01:44:08.294Z,0
2017-08-27T01:45:08.283Z,0
2017-08-27T01:46:08.307Z,0
2017-08-27T01:47:08.238Z,0
2017-08-27T01:48:08.218Z,0
2017-08-27T01:49:07.883Z,0
2017-08-27T01:50:07.867Z,0
2017-08-27T01:51:08.138Z,0
2017-08-27T01:52:07.868Z,0
2017-08-27T01:53:07.806Z,0
2017-08-27T01:54:08.166Z,0
2017-08-27T01:55:08.071Z,0
2017-08-27T01:56:08.040Z,0
2017-08-27T01:57:08.021Z,0
2017-08-27T01:58:08.056Z,0
2017-08-27T01:59:07.979Z,0
2017-08-27T02:00:07.968Z,0
2017-08-27T02:01:08.304Z,0
2017-08-27T02:02:07.671Z,0
2017-08-27T02:03:07.915Z,0
2017-08-27T02:04:07.899Z,0
2017-08-27T02:05:07.558Z,0
2017-08-27T02:06:07.857Z,0
2017-08-27T02:07:07.828Z,0
2017-08-27T02:08:07.816Z,0
2017-08-27T02:09:07.790Z,0
2017-08-27T02:10:07.819Z,0
2017-08-27T02:11:07.490Z,0
2017-08-27T02:12:07.733Z,0
2017-08-27T02:13:07.713Z,0
2017-08-27T02:14:07.686Z,0
2017-08-27T02:15:07.705Z,0
2017-08-27T02:16:07.634Z,0
2017-08-27T02:17:13.633Z,0
2017-08-27T02:18:07.656Z,0
2017-08-27T02:19:07.580Z,0
2017-08-27T02:20:07.557Z,0
2017-08-27T02:21:07.536Z,0
2017-08-27T02:22:07.207Z,0
2017-08-27T02:23:07.593Z,0
2017-08-27T02:24:07.477Z,0
2017-08-27T02:25:07.455Z,0
2017-08-27T02:26:07.434Z,0
2017-08-27T02:27:07.416Z,0
2017-08-27T02:28:07.399Z,0
2017-08-27T02:29:07.418Z,0
2017-08-27T02:30:07.353Z,0
2017-08-27T02:31:07.328Z,0
2017-08-27T02:32:07.305Z,0
2017-08-27T02:33:07.289Z,0
2017-08-27T02:34:06.668Z,0
2017-08-27T02:35:07.257Z,0
2017-08-27T02:36:07.241Z,0
2017-08-27T02:37:07.206Z,0
2017-08-27T02:38:07.189Z,0
2017-08-27T02:39:07.162Z,0
2017-08-27T02:40:07.147Z,0
2017-08-27T02:41:07.126Z,0
2017-08-27T02:42:07.111Z,0
2017-08-27T02:43:07.089Z,0
2017-08-27T02:44:06.808Z,0
2017-08-27T02:45:06.735Z,0
2017-08-27T02:46:07.028Z,0
2017-08-27T02:47:06.388Z,0
2017-08-27T02:48:06.981Z,0
2017-08-27T02:49:06.969Z,0
2017-08-27T02:50:06.940Z,0
2017-08-27T02:51:06.915Z,0
2017-08-27T02:52:06.590Z,0
2017-08-27T02:53:06.876Z,0
2017-08-27T02:54:06.864Z,0
2017-08-27T02:55:06.833Z,0
2017-08-27T02:56:07.119Z,0
2017-08-27T02:57:06.808Z,0
2017-08-27T02:58:06.783Z,0
2017-08-27T02:59:06.752Z,0
2017-08-27T03:00:06.744Z,0
2017-08-27T03:01:06.761Z,0
2017-08-27T03:02:06.733Z,0
2017-08-27T03:03:06.669Z,0
2017-08-27T03:04:06.658Z,0
2017-08-27T03:05:06.634Z,0
2017-08-27T03:06:06.673Z,0
2017-08-27T03:07:06.588Z,0
2017-08-27T03:08:06.577Z,0
2017-08-27T03:09:06.239Z,0
2017-08-27T03:10:06.530Z,0
2017-08-27T03:11:06.499Z,0
2017-08-27T03:12:06.489Z,0
2017-08-27T03:13:06.469Z,0
2017-08-27T03:14:06.443Z,0
2017-08-27T03:15:06.422Z,0
2017-08-27T03:16:06.403Z,0
2017-08-27T03:17:06.076Z,0
2017-08-27T03:18:06.372Z,0
2017-08-27T03:19:06.337Z,0
2017-08-27T03:20:06.323Z,0
2017-08-27T03:21:06.299Z,0
2017-08-27T03:22:05.968Z,0
2017-08-27T03:23:06.256Z,0
2017-08-27T03:24:06.239Z,0
2017-08-27T03:25:06.268Z,0
2017-08-27T03:26:06.189Z,0
2017-08-27T03:27:06.170Z,0
2017-08-27T03:28:06.152Z,0
2017-08-27T03:29:06.131Z,0
2017-08-27T03:30:05.855Z,0
2017-08-27T03:31:06.100Z,0
2017-08-27T03:32:05.769Z,0
2017-08-27T03:33:06.042Z,0
2017-08-27T03:34:06.021Z,0
2017-08-27T03:35:05.745Z,0
2017-08-27T03:36:05.684Z,0
2017-08-27T03:37:05.958Z,0
2017-08-27T03:38:05.938Z,0
2017-08-27T03:39:05.971Z,0
2017-08-27T03:40:05.903Z,0
2017-08-27T03:41:05.873Z,0
2017-08-27T03:42:05.860Z,0
2017-08-27T03:43:05.893Z,0
2017-08-27T03:44:05.557Z,0
2017-08-27T03:45:05.797Z,0
2017-08-27T03:46:05.823Z,0
2017-08-27T03:47:05.442Z,0
2017-08-27T03:48:05.739Z,0
2017-08-27T03:49:05.713Z,0
2017-08-27T03:50:05.688Z,0
2017-08-27T03:51:05.739Z,0
2017-08-27T03:52:05.649Z,0
2017-08-27T03:53:05.626Z,0
2017-08-27T03:54:05.605Z,0
2017-08-27T03:55:05.326Z,0
2017-08-27T03:56:05.564Z,0
2017-08-27T03:57:05.537Z,0
2017-08-27T03:58:05.528Z,0
2017-08-27T03:59:05.499Z,0
2017-08-27T04:00:05.477Z,0
2017-08-27T04:01:05.518Z,0
2017-08-27T04:02:05.444Z,0
2017-08-27T04:03:05.410Z,0
2017-08-27T04:04:05.086Z,0
2017-08-27T04:05:05.397Z,0
2017-08-27T04:06:05.046Z,0
2017-08-27T04:07:05.328Z,0
2017-08-27T04:08:05.310Z,0
2017-08-27T04:09:05.290Z,0
2017-08-27T04:10:05.322Z,0
2017-08-27T04:11:05.253Z,0
2017-08-27T04:12:05.233Z,0
2017-08-27T04:13:05.214Z,0
2017-08-27T04:14:05.180Z,0
2017-08-27T04:15:05.167Z,0
2017-08-27T04:16:05.140Z,0
2017-08-27T04:17:05.119Z,0
2017-08-27T04:18:05.155Z,0
2017-08-27T04:19:05.126Z,0
2017-08-27T04:20:05.061Z,0
2017-08-27T04:21:05.046Z,0
2017-08-27T04:22:05.014Z,0
2017-08-27T04:23:04.994Z,0
2017-08-27T04:24:04.978Z,0
2017-08-27T04:25:04.951Z,0
2017-08-27T04:26:04.937Z,0
2017-08-27T04:27:04.966Z,5
2017-08-27T04:28:04.957Z,5
2017-08-27T04:29:04.868Z,5
2017-08-27T04:30:04.849Z,5
2017-08-27T04:31:04.840Z,5
2017-08-27T04:32:04.813Z,5
2017-08-27T04:33:04.797Z,5
2017-08-27T04:34:04.760Z,5
2017-08-27T04:35:04.751Z,10
2017-08-27T04:36:04.719Z,10
2017-08-27T04:37:04.708Z,10
2017-08-27T04:38:04.695Z,10
2017-08-27T04:39:04.657Z,10
2017-08-27T04:40:04.639Z,15
2017-08-27T04:41:04.616Z,15
2017-08-27T04:42:04.594Z,15
2017-08-27T04:43:04.581Z,20
2017-08-27T04:44:04.552Z,20
2017-08-27T04:45:04.225Z,20
2017-08-27T04:46:04.504Z,20
2017-08-27T04:47:04.482Z,25
2017-08-27T04:48:04.154Z,25
2017-08-27T04:49:04.438Z,25
2017-08-27T04:50:04.424Z,30
2017-08-27T04:51:04.407Z,30
2017-08-27T04:52:04.387Z,30
2017-08-27T04:53:04.363Z,30
2017-08-27T04:54:04.342Z,35
2017-08-27T04:55:04.318Z,35
2017-08-27T04:56:04.012Z,35
2017-08-27T04:57:04.284Z,40
2017-08-27T04:58:03.958Z,40
2017-08-27T04:59:04.241Z,45
2017-08-27T05:00:04.228Z,45
2017-08-27T05:01:04.193Z,50
2017-08-27T05:02:04.234Z,50
2017-08-27T05:03:04.201Z,55
2017-08-27T05:04:04.135Z,55
2017-08-27T05:05:04.116Z,55
2017-08-27T05:06:04.098Z,60
2017-08-27T05:07:04.078Z,65
2017-08-27T05:08:04.066Z,70
2017-08-27T05:09:04.037Z,75
2017-08-27T05:10:03.703Z,80
2017-08-27T05:11:03.995Z,75
2017-08-27T05:12:03.972Z,80
2017-08-27T05:13:03.943Z,85
2017-08-27T05:14:03.926Z,95
2017-08-27T05:15:03.958Z,100
2017-08-27T05:16:03.883Z,110
2017-08-27T05:17:03.915Z,115
2017-08-27T05:18:03.836Z,125
2017-08-27T05:19:03.871Z,130
2017-08-27T05:20:03.486Z,130
2017-08-27T05:21:03.837Z,130
2017-08-27T05:22:03.754Z,135
2017-08-27T05:23:03.436Z,140
2017-08-27T05:24:03.713Z,140
2017-08-27T05:25:03.687Z,145
2017-08-27T05:26:03.677Z,145
2017-08-27T05:27:03.648Z,150
2017-08-27T05:28:03.645Z,155
2017-08-27T05:29:03.609Z,155
2017-08-27T05:30:03.584Z,155
2017-08-27T05:31:03.572Z,165
2017-08-27T05:32:03.250Z,175
2017-08-27T05:33:03.526Z,180
2017-08-27T05:34:03.510Z,185
2017-08-27T05:35:03.190Z,185
2017-08-27T05:36:03.471Z,190
2017-08-27T05:37:03.143Z,195
2017-08-27T05:38:03.436Z,195
2017-08-27T05:39:03.420Z,195
2017-08-27T05:40:03.401Z,190
2017-08-27T05:41:03.437Z,190
2017-08-27T05:42:03.353Z,195
2017-08-27T05:43:03.331Z,190
2017-08-27T05:44:03.313Z,190
2017-08-27T05:45:03.292Z,200
2017-08-27T05:46:02.961Z,205
2017-08-27T05:47:03.256Z,220
2017-08-27T05:48:03.234Z,230
2017-08-27T05:49:03.211Z,235
2017-08-27T05:50:03.197Z,235
2017-08-27T05:51:03.203Z,265
2017-08-27T05:52:03.159Z,270
2017-08-27T05:53:02.870Z,275
2017-08-27T05:54:03.109Z,285
2017-08-27T05:55:03.154Z,305
2017-08-27T05:56:02.768Z,305
2017-08-27T05:57:03.061Z,310
2017-08-27T05:58:03.046Z,315
2017-08-27T05:59:03.021Z,325
2017-08-27T06:00:02.996Z,325
2017-08-27T06:01:02.993Z,325
2017-08-27T06:02:02.955Z,325
2017-08-27T06:03:02.938Z,340
2017-08-27T06:04:02.916Z,330
2017-08-27T06:05:02.905Z,355
2017-08-27T06:06:02.569Z,350
2017-08-27T06:07:02.609Z,315
2017-08-27T06:08:02.836Z,360
2017-08-27T06:09:02.869Z,390
2017-08-27T06:10:02.807Z,380
2017-08-27T06:11:02.802Z,390
2017-08-27T06:12:02.777Z,385
2017-08-27T06:13:02.454Z,405
2017-08-27T06:14:02.434Z,415
2017-08-27T06:15:02.715Z,410
2017-08-27T06:16:02.698Z,420
2017-08-27T06:17:02.681Z,415
2017-08-27T06:18:02.358Z,420
2017-08-27T06:19:02.649Z,425
2017-08-27T06:20:02.361Z,395
2017-08-27T06:21:02.606Z,430
2017-08-27T06:22:02.288Z,450
2017-08-27T06:23:02.623Z,455
2017-08-27T06:24:02.566Z,465
2017-08-27T06:25:02.545Z,480
2017-08-27T06:26:02.524Z,485
2017-08-27T06:27:02.501Z,480
2017-08-27T06:28:02.198Z,500
2017-08-27T06:29:02.480Z,480
2017-08-27T06:30:02.459Z,500
2017-08-27T06:31:02.442Z,450
2017-08-27T06:32:02.422Z,385
2017-08-27T06:33:02.407Z,445
2017-08-27T06:34:02.397Z,455
2017-08-27T06:35:02.374Z,545
2017-08-27T06:36:02.360Z,465
2017-08-27T06:37:02.344Z,520
2017-08-27T06:38:02.015Z,540
2017-08-27T06:39:02.310Z,520
2017-08-27T06:40:02.294Z,575
2017-08-27T06:41:02.286Z,550
2017-08-27T06:42:02.319Z,515
2017-08-27T06:43:02.306Z,520
2017-08-27T06:44:02.234Z,495
2017-08-27T06:45:01.917Z,490
2017-08-27T06:46:02.195Z,535
2017-08-27T06:47:02.193Z,475
2017-08-27T06:48:02.174Z,465
2017-08-27T06:49:01.852Z,390
2017-08-27T06:50:02.145Z,495
2017-08-27T06:51:02.117Z,505
2017-08-27T06:52:02.104Z,475
2017-08-27T06:53:02.191Z,475
2017-08-27T06:54:02.076Z,595
2017-08-27T06:55:02.059Z,610
2017-08-27T06:56:02.037Z,620
2017-08-27T06:57:02.026Z,655
2017-08-27T06:58:02.015Z,655
2017-08-27T06:59:01.995Z,635
2017-08-27T07:00:01.995Z,665
2017-08-27T07:01:01.971Z,680
2017-08-27T07:02:01.952Z,675
2017-08-27T07:03:01.936Z,700
2017-08-27T07:04:01.922Z,705
2017-08-27T07:05:01.910Z,685
2017-08-27T07:06:01.898Z,730
2017-08-27T07:07:01.872Z,715
2017-08-27T07:08:01.870Z,685
2017-08-27T07:09:01.553Z,740
2017-08-27T07:10:01.521Z,670
2017-08-27T07:11:01.820Z,730
2017-08-27T07:12:01.813Z,725
2017-08-27T07:13:01.797Z,780
2017-08-27T07:14:01.779Z,770
2017-08-27T07:15:01.469Z,755
2017-08-27T07:16:01.463Z,715
2017-08-27T07:17:01.740Z,775
2017-08-27T07:18:01.425Z,645
2017-08-27T07:19:01.704Z,800
2017-08-27T07:20:01.703Z,815
2017-08-27T07:21:01.685Z,790
2017-08-27T07:22:01.685Z,550
2017-08-27T07:23:01.665Z,820
2017-08-27T07:24:01.670Z,850
2017-08-27T07:25:01.620Z,920
2017-08-27T07:26:01.311Z,900
2017-08-27T07:27:01.612Z,845
2017-08-27T07:28:01.585Z,935
2017-08-27T07:29:01.584Z,920
2017-08-27T07:30:01.561Z,925
2017-08-27T07:31:01.601Z,890
2017-08-27T07:32:01.560Z,925
2017-08-27T07:33:01.223Z,555
2017-08-27T07:34:01.521Z,510
2017-08-27T07:35:01.506Z,985
2017-08-27T07:36:01.491Z,975
2017-08-27T07:37:01.483Z,895
2017-08-27T07:38:01.493Z,865
2017-08-27T07:39:01.473Z,315
2017-08-27T07:40:01.445Z,1000
2017-08-27T07:41:01.440Z,1010
2017-08-27T07:42:01.423Z,1060
2017-08-27T07:43:01.415Z,1070
2017-08-27T07:44:01.085Z,1115
2017-08-27T07:45:01.384Z,1070
2017-08-27T07:46:01.436Z,1070
2017-08-27T07:47:01.350Z,1220
2017-08-27T07:48:01.344Z,1215
2017-08-27T07:49:01.327Z,1235
2017-08-27T07:50:01.316Z,570
2017-08-27T07:51:01.054Z,1280
2017-08-27T07:52:01.292Z,1275
2017-08-27T07:53:01.282Z,1285
2017-08-27T07:54:01.265Z,1285
2017-08-27T07:55:01.307Z,1220
2017-08-27T07:56:01.254Z,825
2017-08-27T07:57:01.255Z,1250
2017-08-27T07:58:01.231Z,1305
2017-08-27T07:59:00.904Z,1310
2017-08-27T08:00:01.214Z,1280
2017-08-27T08:01:01.195Z,1365
2017-08-27T08:02:01.182Z,1340
2017-08-27T08:03:01.174Z,1345
2017-08-27T08:04:01.172Z,1380
2017-08-27T08:05:00.855Z,1365
2017-08-27T08:06:00.828Z,1375
2017-08-27T08:07:01.135Z,1350
2017-08-27T08:08:01.130Z,1290
2017-08-27T08:09:01.106Z,1345
2017-08-27T08:10:01.104Z,1090
2017-08-27T08:11:00.780Z,1165
2017-08-27T08:12:00.773Z,1460
2017-08-27T08:13:01.060Z,1450
2017-08-27T08:14:00.757Z,1435
2017-08-27T08:15:01.037Z,1475
2017-08-27T08:16:01.043Z,1425
2017-08-27T08:17:00.709Z,1505
2017-08-27T08:18:01.007Z,1545
2017-08-27T08:19:01.000Z,1550
2017-08-27T08:20:00.994Z,1555
2017-08-27T08:21:00.978Z,1560
2017-08-27T08:22:00.967Z,1565
2017-08-27T08:23:00.959Z,1570
2017-08-27T08:24:00.948Z,1535
2017-08-27T08:25:00.937Z,1535
2017-08-27T08:26:00.932Z,1515
2017-08-27T08:27:00.611Z,1545
2017-08-27T08:28:00.607Z,1580
2017-08-27T08:29:00.902Z,1555
2017-08-27T08:30:00.896Z,1530
2017-08-27T08:31:00.898Z,1615
2017-08-27T08:32:00.881Z,1595
2017-08-27T08:33:00.868Z,1560
2017-08-27T08:34:00.542Z,1535
2017-08-27T08:35:00.563Z,1450
2017-08-27T08:36:00.888Z,1310
2017-08-27T08:37:00.827Z,1300
2017-08-27T08:38:00.864Z,1300
2017-08-27T08:39:00.519Z,1280
2017-08-27T08:40:00.511Z,1310
2017-08-27T08:41:00.793Z,1300
2017-08-27T08:42:00.781Z,1355
2017-08-27T08:43:00.478Z,1325
2017-08-27T08:44:00.840Z,1255
2017-08-27T08:45:00.771Z,1115
2017-08-27T08:46:00.440Z,1260
2017-08-27T08:47:00.752Z,1265
2017-08-27T08:48:00.447Z,1260
2017-08-27T08:49:00.726Z,1285
2017-08-27T08:50:00.715Z,1315
2017-08-27T08:51:00.704Z,1330
2017-08-27T08:52:00.688Z,1405
2017-08-27T08:53:00.383Z,1595
2017-08-27T08:54:00.738Z,1625
2017-08-27T08:55:00.673Z,1635
2017-08-27T08:56:00.656Z,1625
2017-08-27T08:57:00.343Z,1625
2017-08-27T08:58:00.639Z,1625
2017-08-27T08:59:00.696Z,1515
2017-08-27T09:00:00.620Z,1450
2017-08-27T09:01:00.609Z,535
2017-08-27T09:02:00.600Z,1335
2017-08-27T09:03:00.282Z,1440
2017-08-27T09:04:00.275Z,1370
2017-08-27T09:05:00.578Z,1425
2017-08-27T09:06:00.261Z,1430
2017-08-27T09:07:00.259Z,1445
2017-08-27T09:08:00.248Z,1475
2017-08-27T09:09:00.219Z,1490
2017-08-27T09:10:00.557Z,1480
2017-08-27T09:11:00.522Z,1475
2017-08-27T09:12:00.509Z,1475
2017-08-27T09:13:00.546Z,1525
2017-08-27T09:14:00.229Z,1520
2017-08-27T09:15:00.477Z,1490
2017-08-27T09:16:00.471Z,1525
2017-08-27T09:17:00.470Z,1530
2017-08-27T09:18:00.455Z,1455
2017-08-27T09:19:00.442Z,1435
2017-08-27T09:20:00.429Z,1445
2017-08-27T09:21:00.121Z,1385
2017-08-27T09:22:00.406Z,1490
2017-08-27T09:23:00.403Z,1480
2017-08-27T09:24:00.403Z,1500
2017-08-27T09:25:00.401Z,1475
2017-08-27T09:26:00.379Z,1510
2017-08-27T09:27:00.362Z,1515
2017-08-27T09:28:00.362Z,1550
2017-08-27T09:29:00.351Z,1560
2017-08-27T09:30:00.344Z,1575
2017-08-27T09:31:00.338Z,1595
2017-08-27T09:32:00.434Z,1555
2017-08-27T09:33:00.327Z,1580
2017-08-27T09:34:00.057Z,1610
2017-08-27T09:35:00.309Z,1605
2017-08-27T09:36:00.305Z,1660
2017-08-27T09:37:00.301Z,1725
2017-08-27T09:38:00.335Z,1025
2017-08-27T09:39:00.275Z,1625
2017-08-27T09:40:00.274Z,1545
2017-08-27T09:40:59.942Z,355
2017-08-27T09:42:00.264Z,410
2017-08-27T09:43:00.482Z,1575
2017-08-27T09:44:00.225Z,775
2017-08-27T09:45:00.211Z,1365
2017-08-27T09:46:00.205Z,1615
2017-08-27T09:47:00.198Z,360
2017-08-27T09:48:00.183Z,1680
2017-08-27T09:49:00.177Z,1670
2017-08-27T09:49:59.853Z,1680
2017-08-27T09:51:00.157Z,1665
2017-08-27T09:51:59.837Z,1630
2017-08-27T09:53:00.134Z,1690
2017-08-27T09:54:00.132Z,1635
2017-08-27T09:55:00.151Z,1620
2017-08-27T09:56:00.107Z,1655
2017-08-27T09:57:00.194Z,1655
2017-08-27T09:58:00.086Z,1655
2017-08-27T09:58:59.817Z,335
2017-08-27T10:00:00.077Z,300
2017-08-27T10:01:00.049Z,1675
2017-08-27T10:02:00.063Z,1145
2017-08-27T10:03:00.036Z,1745
2017-08-27T10:04:00.020Z,1725
2017-08-27T10:04:59.701Z,1780
2017-08-27T10:06:00.015Z,1765
2017-08-27T10:07:00.051Z,1800
2017-08-27T10:07:59.988Z,1780
2017-08-27T10:08:59.990Z,1870
2017-08-27T10:09:59.960Z,1780
2017-08-27T10:10:59.975Z,1715
2017-08-27T10:11:59.943Z,1710
2017-08-27T10:12:59.940Z,1660
2017-08-27T10:13:59.946Z,1675
2017-08-27T10:14:59.621Z,1655
2017-08-27T10:15:59.909Z,1640
2017-08-27T10:16:59.951Z,1710
2017-08-27T10:17:59.958Z,1720
2017-08-27T10:18:59.887Z,1710
2017-08-27T10:19:59.263Z,1650
2017-08-27T10:20:59.958Z,1595
2017-08-27T10:21:59.864Z,600
2017-08-27T10:22:59.232Z,335
2017-08-27T10:23:59.853Z,1710
2017-08-27T10:24:59.841Z,1745
2017-08-27T10:25:59.824Z,1760
2017-08-27T10:26:59.873Z,1765
2017-08-27T10:27:59.805Z,1570
2017-08-27T10:28:59.805Z,830
2017-08-27T10:29:59.782Z,325
2017-08-27T10:30:59.775Z,325
2017-08-27T10:31:59.767Z,320
2017-08-27T10:32:59.754Z,315
2017-08-27T10:33:59.761Z,310
2017-08-27T10:34:59.747Z,300
2017-08-27T10:35:59.730Z,305
2017-08-27T10:36:59.769Z,315
2017-08-27T10:37:59.402Z,310
2017-08-27T10:38:59.704Z,320
2017-08-27T10:39:59.382Z,335
2017-08-27T10:40:59.373Z,355
2017-08-27T10:41:59.659Z,400
2017-08-27T10:42:59.635Z,430
2017-08-27T10:43:59.629Z,450
2017-08-27T10:44:59.662Z,460
2017-08-27T10:45:59.345Z,460
2017-08-27T10:46:59.587Z,420
2017-08-27T10:47:59.570Z,415
2017-08-27T10:48:59.270Z,395
2017-08-27T10:49:59.535Z,365
2017-08-27T10:50:59.214Z,355
2017-08-27T10:51:59.528Z,295
2017-08-27T10:52:59.559Z,305
2017-08-27T10:53:59.478Z,300
2017-08-27T10:54:59.219Z,285
2017-08-27T10:55:59.454Z,270
2017-08-27T10:56:59.436Z,235
2017-08-27T10:57:59.113Z,260
2017-08-27T10:58:59.408Z,245
2017-08-27T10:59:59.403Z,245
2017-08-27T11:00:59.394Z,245
2017-08-27T11:01:59.306Z,250
2017-08-27T11:02:59.029Z,240
2017-08-27T11:03:59.332Z,265
2017-08-27T11:04:59.365Z,265
2017-08-27T11:05:59.303Z,230
2017-08-27T11:06:58.980Z,250
2017-08-27T11:07:59.259Z,235
2017-08-27T11:08:59.252Z,230
2017-08-27T11:09:59.228Z,240
2017-08-27T11:10:59.209Z,240
2017-08-27T11:11:58.886Z,240
2017-08-27T11:12:58.873Z,245
2017-08-27T11:13:59.155Z,250
2017-08-27T11:14:59.144Z,260
2017-08-27T11:15:59.118Z,260
2017-08-27T11:16:59.113Z,265
2017-08-27T11:17:59.086Z,260
2017-08-27T11:18:59.068Z,260
2017-08-27T11:19:58.754Z,270
2017-08-27T11:20:59.086Z,275
2017-08-27T11:21:59.028Z,270
2017-08-27T11:22:59.015Z,265
2017-08-27T11:23:58.992Z,260
2017-08-27T11:24:58.673Z,250
2017-08-27T11:25:58.653Z,245
2017-08-27T11:26:58.934Z,240
2017-08-27T11:27:58.623Z,240
2017-08-27T11:28:59.161Z,245
2017-08-27T11:29:58.586Z,260
2017-08-27T11:30:58.865Z,255
2017-08-27T11:31:58.854Z,235
2017-08-27T11:32:58.839Z,245
2017-08-27T11:33:58.818Z,230
2017-08-27T11:34:58.796Z,240
2017-08-27T11:35:58.787Z,235
2017-08-27T11:36:58.760Z,260
2017-08-27T11:37:58.741Z,255
2017-08-27T11:38:58.723Z,260
2017-08-27T11:39:58.392Z,255
2017-08-27T11:40:58.786Z,260
2017-08-27T11:41:58.370Z,290
2017-08-27T11:42:58.722Z,310
2017-08-27T11:43:58.655Z,325
2017-08-27T11:44:58.629Z,305
2017-08-27T11:45:58.622Z,290
2017-08-27T11:46:58.294Z,285
2017-08-27T11:47:58.631Z,295
2017-08-27T11:48:58.244Z,285
2017-08-27T11:49:58.227Z,220
2017-08-27T11:50:58.215Z,205
2017-08-27T11:51:58.515Z,190
2017-08-27T11:52:58.495Z,180
2017-08-27T11:53:58.159Z,200
2017-08-27T11:54:58.447Z,205
2017-08-27T11:55:58.440Z,205
2017-08-27T11:56:58.122Z,205
2017-08-27T11:57:58.404Z,195
2017-08-27T11:58:58.080Z,210
2017-08-27T11:59:58.357Z,230
2017-08-27T12:00:58.341Z,255
2017-08-27T12:01:58.319Z,280
2017-08-27T12:02:58.006Z,270
2017-08-27T12:03:57.987Z,255
2017-08-27T12:04:58.278Z,245
2017-08-27T12:05:57.942Z,245
2017-08-27T12:06:58.239Z,245
2017-08-27T12:07:57.927Z,245
2017-08-27T12:08:57.893Z,240
2017-08-27T12:09:58.194Z,230
2017-08-27T12:10:58.219Z,230
2017-08-27T12:11:58.153Z,225
2017-08-27T12:12:58.143Z,225
2017-08-27T12:13:58.119Z,235
2017-08-27T12:14:58.096Z,235
2017-08-27T12:15:58.075Z,235
2017-08-27T12:16:58.072Z,235
2017-08-27T12:17:58.100Z,265
2017-08-27T12:18:58.094Z,295
2017-08-27T12:19:58.018Z,310
2017-08-27T12:20:57.992Z,320
2017-08-27T12:21:57.991Z,315
2017-08-27T12:22:57.964Z,320
2017-08-27T12:23:57.979Z,340
2017-08-27T12:24:57.926Z,360
2017-08-27T12:25:57.912Z,360
2017-08-27T12:26:57.885Z,370
2017-08-27T12:27:57.554Z,360
2017-08-27T12:28:57.853Z,330
2017-08-27T12:29:57.528Z,295
2017-08-27T12:30:57.520Z,275
2017-08-27T12:31:57.864Z,250
2017-08-27T12:32:57.792Z,245
2017-08-27T12:33:57.820Z,260
2017-08-27T12:34:57.755Z,270
2017-08-27T12:35:57.722Z,245
2017-08-27T12:36:57.416Z,230
2017-08-27T12:37:57.704Z,210
2017-08-27T12:38:57.673Z,205
2017-08-27T12:39:57.661Z,185
2017-08-27T12:40:57.647Z,180
2017-08-27T12:41:57.639Z,195
2017-08-27T12:42:57.293Z,180
2017-08-27T12:43:57.342Z,185
2017-08-27T12:44:57.270Z,180
2017-08-27T12:45:57.612Z,180
2017-08-27T12:46:57.637Z,175
2017-08-27T12:47:57.526Z,170
2017-08-27T12:48:57.192Z,170
2017-08-27T12:49:57.487Z,170
2017-08-27T12:50:57.456Z,175
2017-08-27T12:51:57.437Z,170
2017-08-27T12:52:57.477Z,185
2017-08-27T12:53:57.419Z,200
2017-08-27T12:54:57.340Z,195
2017-08-27T12:55:57.380Z,200
2017-08-27T12:56:57.354Z,200
2017-08-27T12:57:57.022Z,205
2017-08-27T12:58:57.081Z,200
2017-08-27T12:59:57.308Z,200
2017-08-27T13:00:57.278Z,195
2017-08-27T13:01:56.963Z,200
2017-08-27T13:02:57.257Z,205
2017-08-27T13:03:57.243Z,210
2017-08-27T13:04:56.895Z,235
2017-08-27T13:05:56.951Z,240
2017-08-27T13:06:56.876Z,265
2017-08-27T13:07:57.163Z,290
2017-08-27T13:08:57.144Z,315
2017-08-27T13:09:57.105Z,335
2017-08-27T13:10:57.114Z,350
2017-08-27T13:11:57.096Z,340
2017-08-27T13:12:56.753Z,325
2017-08-27T13:13:57.049Z,305
2017-08-27T13:14:57.027Z,290
2017-08-27T13:15:57.044Z,270
2017-08-27T13:16:57.054Z,260
2017-08-27T13:17:57.029Z,245
2017-08-27T13:18:56.648Z,235
2017-08-27T13:19:56.642Z,225
2017-08-27T13:20:56.661Z,225
2017-08-27T13:21:56.292Z,220
2017-08-27T13:22:56.897Z,225
2017-08-27T13:23:56.888Z,230
2017-08-27T13:24:56.845Z,235
2017-08-27T13:25:56.893Z,245
2017-08-27T13:26:56.505Z,245
2017-08-27T13:27:56.808Z,240
2017-08-27T13:28:56.801Z,225
2017-08-27T13:29:56.775Z,210
2017-08-27T13:30:56.525Z,205
2017-08-27T13:31:56.740Z,200
2017-08-27T13:32:56.716Z,200
2017-08-27T13:33:56.102Z,205
2017-08-27T13:34:56.074Z,220
2017-08-27T13:35:56.659Z,230
2017-08-27T13:36:56.648Z,245
2017-08-27T13:37:56.627Z,270
2017-08-27T13:38:56.674Z,270
2017-08-27T13:39:56.599Z,295
2017-08-27T13:40:56.627Z,295
2017-08-27T13:41:56.566Z,275
2017-08-27T13:42:56.550Z,260
2017-08-27T13:43:56.522Z,250
2017-08-27T13:44:56.503Z,255
2017-08-27T13:45:56.485Z,245
2017-08-27T13:46:56.464Z,225
2017-08-27T13:47:56.441Z,220
2017-08-27T13:48:56.434Z,205
2017-08-27T13:49:56.430Z,175
2017-08-27T13:50:56.407Z,160
2017-08-27T13:51:56.374Z,155
2017-08-27T13:52:56.410Z,150
2017-08-27T13:53:56.039Z,145
2017-08-27T13:54:56.318Z,135
2017-08-27T13:55:56.312Z,130
2017-08-27T13:56:56.303Z,130
2017-08-27T13:57:56.284Z,135
2017-08-27T13:58:56.273Z,135
2017-08-27T13:59:56.235Z,140